Time;durP1;ratioP1;P1;durP2;ratioP2;P2;SDS_P1;SDS_P2;PMS_P1;PMS_P2;Temp;Humidity;BMP_temperature;BMP_pressure;BME280_temperature;BME280_humidity;BME280_pressure;Samples;Min_cycle;Max_cycle;Signal;HPM_P1;HPM_P2
2022/11/22 00:01:25;;;;;;;;;;;;;;;7.23;51.88;99319.16;4982312;28;116609;-65
2022/11/22 00:03:50;;;;;;;;;;;;;;;7.22;52.08;99316.72;4987504;28;98874;-65
2022/11/22 00:06:16;;;;;;;;;;;;;;;7.23;51.94;99315.66;4985144;27;125414;-65
2022/11/22 00:08:42;;;;;;;;;;;;;;;7.22;51.77;99306.00;4986867;28;123948;-65
2022/11/22 00:11:08;;;;;;;;;;;;;;;7.22;52.06;99306.81;4991568;28;98265;-63
2022/11/22 00:13:34;;;;;;;;;;;;;;;7.23;51.76;99313.78;4990922;28;128105;-65
2022/11/22 00:16:01;;;;;;;;;;;;;;;7.20;52.19;99314.34;4987535;28;105328;-65
2022/11/22 00:18:27;;;;;;;;;;;;;;;7.20;52.16;99314.34;4986328;27;104081;-65
2022/11/22 00:20:54;;;;;;;;;;;;;;;7.20;52.21;99295.56;4987809;28;100555;-65
2022/11/22 00:23:19;;;;;;;;;;;;;;;7.21;51.89;99301.72;4983658;28;98953;-62
2022/11/22 00:25:46;;;;;;;;;;;;;;;7.20;51.85;99292.09;4984255;28;125738;-63
2022/11/22 00:28:11;;;;;;;;;;;;;;;7.20;52.11;99289.41;4985026;27;97985;-65
2022/11/22 00:30:37;;;;;;;;;;;;;;;7.20;51.97;99281.38;4998787;28;127989;-65
2022/11/22 00:33:03;;;;;;;;;;;;;;;7.19;52.22;99283.25;4982673;27;126369;-63
2022/11/22 00:35:29;;;;;;;;;;;;;;;7.18;51.95;99281.63;4985946;28;128318;-65
2022/11/22 00:37:55;;;;;;;;;;;;;;;7.18;51.83;99272.78;4984292;27;122304;-62
2022/11/22 00:40:21;;;;;;;;;;;;;;;7.18;52.01;99273.59;4967095;28;127353;-65
2022/11/22 00:42:47;;;;;;;;;;;;;;;7.18;52.13;99268.22;4974234;28;127692;-62
2022/11/22 00:45:13;;;;;;;;;;;;;;;7.17;52.02;99265.84;4983171;28;126684;-65
2022/11/22 00:47:39;;;;;;;;;;;;;;;7.17;52.20;99255.13;4983750;27;121369;-65
2022/11/22 00:50:05;;;;;;;;;;;;;;;7.16;52.15;99264.22;4994705;28;119764;-62
2022/11/22 00:52:31;;;;;;;;;;;;;;;7.14;52.03;99257.25;4985432;28;116518;-65
2022/11/22 00:54:57;;;;;;;;;;;;;;;7.14;51.80;99251.09;4981466;28;127767;-65
2022/11/22 00:57:22;;;;;;;;;;;;;;;7.14;52.05;99251.88;4984840;28;122614;-65
2022/11/22 00:59:48;;;;;;;;;;;;;;;7.14;51.96;99251.09;4986423;28;98426;-63
2022/11/22 01:02:14;;;;;;;;;;;;;;;7.13;51.85;99254.84;4986999;28;127015;-64
2022/11/22 01:04:40;;;;;;;;;;;;;;;7.13;51.64;99254.84;4985564;28;127380;-65
2022/11/22 01:07:06;;;;;;;;;;;;;;;7.13;51.91;99252.16;4985449;28;120701;-63
2022/11/22 01:09:32;;;;;;;;;;;;;;;7.12;52.03;99262.09;4995230;28;126001;-63
2022/11/22 01:11:58;;;;;;;;;;;;;;;7.11;51.73;99263.19;4980762;27;128778;-63
2022/11/22 01:14:24;;;;;;;;;;;;;;;7.11;52.18;99265.84;4984159;28;127991;-65
2022/11/22 01:16:50;;;;;;;;;;;;;;;7.11;52.02;99257.81;4984291;28;106300;-63
2022/11/22 01:19:16;;;;;;;;;;;;;;;7.11;51.83;99263.19;4950991;28;112776;-65
2022/11/22 01:21:42;;;;;;;;;;;;;;;7.11;52.27;99265.84;4983553;28;127799;-65
2022/11/22 01:24:08;;;;;;;;;;;;;;;7.11;51.85;99262.34;4966262;28;98107;-65
2022/11/22 01:26:34;;;;;;;;;;;;;;;7.10;51.92;99256.19;4994405;28;99576;-63
2022/11/22 01:29:00;;;;;;;;;;;;;;;7.10;52.16;99258.88;4984064;28;128820;-63
2022/11/22 01:31:26;;;;;;;;;;;;;;;7.10;52.07;99258.88;4985431;28;127102;-65
2022/11/22 01:33:52;;;;;;;;;;;;;;;7.09;52.00;99268.00;4983553;28;100400;-62
2022/11/22 01:36:17;;;;;;;;;;;;;;;7.09;52.19;99262.63;4985622;28;111895;-62
2022/11/22 01:38:43;;;;;;;;;;;;;;;7.10;51.87;99264.22;4983290;28;126517;-65
2022/11/22 01:41:09;;;;;;;;;;;;;;;7.09;51.83;99264.50;4981071;27;128704;-63
2022/11/22 01:43:35;;;;;;;;;;;;;;;7.10;52.09;99264.22;4986256;28;126724;-65
2022/11/22 01:46:02;;;;;;;;;;;;;;;7.09;51.59;99256.47;4995887;27;122267;-65
2022/11/22 01:48:44;;;;;;;;;;;;;;;7.08;51.96;99258.34;4966956;28;98858;-65
2022/11/22 01:51:19;;;;;;;;;;;;;;;7.08;51.79;99255.69;4963200;28;125785;-65
2022/11/22 01:53:45;;;;;;;;;;;;;;;7.08;51.90;99241.47;4987002;28;98153;-63
2022/11/22 01:56:13;;;;;;;;;;;;;;;7.08;52.12;99246.84;4954683;28;112422;-65
2022/11/22 01:58:40;;;;;;;;;;;;;;;7.08;52.20;99249.53;4967925;28;98516;-65
2022/11/22 02:01:06;;;;;;;;;;;;;;;7.08;52.18;99244.97;4953910;27;106360;-65
2022/11/22 02:03:32;;;;;;;;;;;;;;;7.08;51.96;99241.47;4965781;28;127368;-65
2022/11/22 02:05:58;;;;;;;;;;;;;;;7.08;51.89;99228.06;4994617;28;97700;-62
2022/11/22 02:08:54;;;;;;;;;;;;;;;7.08;51.96;99230.75;4981156;28;127357;-65
2022/11/22 02:11:20;;;;;;;;;;;;;;;7.06;51.85;99236.38;4951071;28;99370;-65
2022/11/22 02:13:46;;;;;;;;;;;;;;;7.07;52.15;99232.66;4984993;28;127671;-65
2022/11/22 02:16:12;;;;;;;;;;;;;;;7.07;51.86;99237.16;4962655;27;118511;-62
2022/11/22 02:18:38;;;;;;;;;;;;;;;7.07;51.92;99243.34;4960863;28;127364;-65
2022/11/22 02:21:04;;;;;;;;;;;;;;;7.06;51.90;99240.94;4985771;27;127337;-65
2022/11/22 02:23:48;;;;;;;;;;;;;;;7.06;51.87;99222.19;4957522;28;126480;-62
2022/11/22 02:26:14;;;;;;;;;;;;;;;7.05;52.03;99221.38;4986250;27;97979;-65
2022/11/22 02:28:40;;;;;;;;;;;;;;;7.04;52.04;99227.03;4983744;27;126556;-65
2022/11/22 02:31:06;;;;;;;;;;;;;;;7.04;52.09;99218.97;4967130;28;99090;-65
2022/11/22 02:33:32;;;;;;;;;;;;;;;7.04;52.01;99213.63;4984314;28;128036;-63
2022/11/22 02:35:58;;;;;;;;;;;;;;;7.03;52.19;99206.63;4986038;28;121719;-65
2022/11/22 02:38:31;;;;;;;;;;;;;;;7.03;51.90;99203.97;4964727;28;129202;-63
2022/11/22 02:41:10;;;;;;;;;;;;;;;7.02;51.73;99199.69;4961791;28;98642;-65
2022/11/22 02:43:43;;;;;;;;;;;;;;;7.02;51.98;99203.16;4955637;28;99084;-65
2022/11/22 02:46:19;;;;;;;;;;;;;;;7.01;51.98;99188.16;4964746;27;104272;-63
2022/11/22 02:48:45;;;;;;;;;;;;;;;7.01;51.96;99188.16;4985986;27;99032;-63
2022/11/22 02:51:15;;;;;;;;;;;;;;;7.00;51.62;99191.94;4985107;27;99221;-65
2022/11/22 02:53:42;;;;;;;;;;;;;;;7.00;52.17;99194.63;4983297;27;98339;-63
2022/11/22 02:56:08;;;;;;;;;;;;;;;7.00;52.00;99191.94;4982718;27;97996;-62
2022/11/22 02:58:34;;;;;;;;;;;;;;;7.00;52.17;99193.81;4983876;28;126815;-62
2022/11/22 03:00:59;;;;;;;;;;;;;;;6.99;52.44;99200.22;4977860;28;128643;-63
2022/11/22 03:03:25;;;;;;;;;;;;;;;6.99;52.06;99200.22;4986056;28;100041;-63
2022/11/22 03:05:51;;;;;;;;;;;;;;;6.98;52.23;99204.78;4980959;28;121596;-63
2022/11/22 03:08:17;;;;;;;;;;;;;;;6.97;51.78;99195.16;4986346;27;127583;-65
2022/11/22 03:10:43;;;;;;;;;;;;;;;6.97;52.15;99199.72;4987988;27;127909;-63
2022/11/22 03:13:09;;;;;;;;;;;;;;;6.97;51.86;99191.69;4986526;27;126375;-65
2022/11/22 03:15:35;;;;;;;;;;;;;;;6.96;51.92;99188.19;4987257;28;122284;-63
2022/11/22 03:18:01;;;;;;;;;;;;;;;6.95;52.02;99186.56;4983217;28;99108;-65
2022/11/22 03:20:27;;;;;;;;;;;;;;;6.96;52.01;99195.44;4998310;27;127258;-62
2022/11/22 03:22:54;;;;;;;;;;;;;;;6.95;51.76;99193.81;4985595;28;118431;-64
2022/11/22 03:25:20;;;;;;;;;;;;;;;6.95;51.99;99191.94;4987712;27;98360;-63
2022/11/22 03:27:46;;;;;;;;;;;;;;;6.95;51.99;99185.78;4982863;28;127626;-65
2022/11/22 03:30:12;;;;;;;;;;;;;;;6.94;51.96;99186.84;4989529;27;127930;-65
2022/11/22 03:32:37;;;;;;;;;;;;;;;6.95;51.87;99193.81;4988474;27;125259;-63
2022/11/22 03:35:04;;;;;;;;;;;;;;;6.94;51.91;99179.63;4987089;27;122833;-63
2022/11/22 03:37:30;;;;;;;;;;;;;;;6.94;51.97;99184.19;4984653;27;121661;-64
2022/11/22 03:39:55;;;;;;;;;;;;;;;6.93;52.10;99193.31;4994034;27;127614;-62
2022/11/22 03:42:21;;;;;;;;;;;;;;;6.94;51.79;99186.84;4983497;28;127001;-63
2022/11/22 03:44:47;;;;;;;;;;;;;;;6.93;52.08;99193.31;4988073;28;121252;-65
2022/11/22 03:47:13;;;;;;;;;;;;;;;6.92;51.87;99187.16;4985381;27;127780;-62
2022/11/22 03:49:39;;;;;;;;;;;;;;;6.92;51.94;99186.31;4983330;27;119360;-65
2022/11/22 03:52:05;;;;;;;;;;;;;;;6.92;52.04;99187.16;4986034;28;125498;-65
2022/11/22 03:54:31;;;;;;;;;;;;;;;6.92;51.96;99183.63;4986498;28;97926;-65
2022/11/22 03:56:57;;;;;;;;;;;;;;;6.91;52.02;99182.84;4996966;28;128866;-63
2022/11/22 03:59:23;;;;;;;;;;;;;;;6.91;51.85;99180.16;4981472;28;128103;-65
2022/11/22 04:01:49;;;;;;;;;;;;;;;6.91;52.08;99188.19;4985078;28;125534;-63
2022/11/22 04:04:14;;;;;;;;;;;;;;;6.91;52.18;99184.72;4987574;28;118962;-65
2022/11/22 04:06:40;;;;;;;;;;;;;;;6.90;51.91;99183.91;4988259;28;122617;-65
2022/11/22 04:09:06;;;;;;;;;;;;;;;6.89;52.08;99176.97;4986562;27;128959;-62
2022/11/22 04:11:32;;;;;;;;;;;;;;;6.90;51.88;99175.88;4984391;27;128404;-62
2022/11/22 04:16:42;;;;;;;;;;;;;;;6.88;52.05;99170.81;4996441;28;97919;-65
2022/11/22 04:19:08;;;;;;;;;;;;;;;6.86;51.93;99172.16;4986389;27;128371;-65
2022/11/22 04:21:34;;;;;;;;;;;;;;;6.85;51.85;99173.22;4989010;27;98057;-63
2022/11/22 04:26:47;;;;;;;;;;;;;;;6.81;51.87;99177.53;4983911;28;98087;-62
2022/11/22 04:29:14;;;;;;;;;;;;;;;6.79;51.94;99177.78;4965919;28;98176;-62
2022/11/22 04:34:24;;;;;;;;;;;;;;;6.77;52.00;99187.19;4997302;28;97834;-63
2022/11/22 04:36:50;;;;;;;;;;;;;;;6.77;51.99;99188.00;4983369;27;129166;-65
2022/11/22 04:39:16;;;;;;;;;;;;;;;6.74;51.97;99183.19;4970319;27;100648;-65
2022/11/22 04:41:42;;;;;;;;;;;;;;;6.76;51.78;99189.06;4986432;27;126568;-65
2022/11/22 04:46:53;;;;;;;;;;;;;;;6.77;52.04;99193.34;4983751;27;97985;-65
2022/11/22 04:49:19;;;;;;;;;;;;;;;6.76;51.91;99199.78;4948565;28;127454;-65
2022/11/22 04:54:29;;;;;;;;;;;;;;;6.76;51.92;99180.22;4996926;28;97899;-65
2022/11/22 04:56:55;;;;;;;;;;;;;;;6.76;51.96;99185.56;4987105;27;126494;-62
2022/11/22 04:59:21;;;;;;;;;;;;;;;6.77;51.84;99182.63;4987683;27;128282;-65
2022/11/22 05:01:47;;;;;;;;;;;;;;;6.78;52.02;99170.84;4984602;27;119471;-65
2022/11/22 05:04:13;;;;;;;;;;;;;;;6.78;51.88;99164.69;4983998;27;121661;-62
2022/11/22 05:06:39;;;;;;;;;;;;;;;6.78;51.82;99167.38;4984572;28;127942;-62
2022/11/22 05:09:05;;;;;;;;;;;;;;;6.79;51.98;99169.75;4985707;27;121365;-63
2022/11/22 05:11:31;;;;;;;;;;;;;;;6.78;51.82;99168.16;4990414;27;128253;-62
2022/11/22 05:13:57;;;;;;;;;;;;;;;6.79;51.99;99177.00;4988340;28;121358;-62
2022/11/22 05:16:23;;;;;;;;;;;;;;;6.80;51.88;99173.25;4986413;27;98971;-63
2022/11/22 05:18:57;;;;;;;;;;;;;;;6.79;51.99;99163.59;4986304;27;122891;-63
2022/11/22 05:21:24;;;;;;;;;;;;;;;6.79;51.77;99160.91;4988929;27;98183;-62
2022/11/22 05:23:53;;;;;;;;;;;;;;;6.79;51.65;99153.69;4964756;28;121132;-65
2022/11/22 05:26:24;;;;;;;;;;;;;;;6.79;51.86;99148.31;4982741;27;99848;-62
2022/11/22 05:28:50;;;;;;;;;;;;;;;6.79;51.72;99136.81;4966284;28;98592;-62
2022/11/22 05:31:21;;;;;;;;;;;;;;;6.78;51.98;99129.88;4995641;28;100414;-64
2022/11/22 05:33:48;;;;;;;;;;;;;;;6.79;51.92;99131.47;4986043;27;98003;-65
2022/11/22 05:36:14;;;;;;;;;;;;;;;6.78;51.85;99144.06;4982193;27;126860;-65
2022/11/22 05:38:40;;;;;;;;;;;;;;;6.79;52.05;99155.56;4984387;27;98341;-62
2022/11/22 05:41:09;;;;;;;;;;;;;;;6.79;51.82;99168.97;4969890;28;98109;-65
2022/11/22 05:43:35;;;;;;;;;;;;;;;6.79;51.95;99169.75;4967134;28;99111;-65
2022/11/22 05:46:10;;;;;;;;;;;;;;;6.79;51.44;99174.31;4986996;28;98247;-65
2022/11/22 05:48:37;;;;;;;;;;;;;;;6.79;52.19;99175.13;4983646;27;97876;-62
2022/11/22 05:51:07;;;;;;;;;;;;;;;6.80;52.00;99179.41;4995148;27;97673;-64
2022/11/22 05:53:33;;;;;;;;;;;;;;;6.81;51.95;99177.53;4985282;27;122410;-65
2022/11/22 05:56:09;;;;;;;;;;;;;;;6.80;51.79;99167.91;4964224;28;98173;-65
2022/11/22 05:58:35;;;;;;;;;;;;;;;6.82;51.96;99171.09;4983932;27;109331;-62
2022/11/22 06:01:02;;;;;;;;;;;;;;;6.83;51.81;99175.38;4961418;28;98296;-62
2022/11/22 06:03:28;;;;;;;;;;;;;;;6.82;51.76;99176.47;4980257;28;121380;-64
2022/11/22 06:05:54;;;;;;;;;;;;;;;6.82;51.83;99182.59;4980596;28;128088;-62
2022/11/22 06:08:20;;;;;;;;;;;;;;;6.84;51.86;99180.47;4970813;27;127670;-65
2022/11/22 06:10:46;;;;;;;;;;;;;;;6.83;51.66;99170.81;4977601;27;127778;-63
2022/11/22 06:13:12;;;;;;;;;;;;;;;6.85;51.84;99174.03;4980685;27;123169;-62
2022/11/22 06:15:38;;;;;;;;;;;;;;;6.86;51.72;99169.47;4982260;27;127921;-62
2022/11/22 06:18:04;;;;;;;;;;;;;;;6.86;51.69;99177.50;4982222;27;104322;-65
2022/11/22 06:20:30;;;;;;;;;;;;;;;6.87;51.56;99187.16;4963453;28;127973;-66
2022/11/22 06:22:58;;;;;;;;;;;;;;;6.87;51.82;99179.91;4974958;28;122807;-65
2022/11/22 06:25:23;;;;;;;;;;;;;;;6.89;51.96;99179.66;4981445;27;98720;-62
2022/11/22 06:27:49;;;;;;;;;;;;;;;6.89;51.89;99180.44;4977253;28;98657;-65
2022/11/22 06:30:15;;;;;;;;;;;;;;;6.91;51.62;99176.69;4982851;27;127071;-65
2022/11/22 06:32:41;;;;;;;;;;;;;;;6.92;51.89;99179.09;4974808;28;118461;-65
2022/11/22 06:35:08;;;;;;;;;;;;;;;6.92;52.01;99191.69;4979993;27;126901;-65
2022/11/22 06:37:34;;;;;;;;;;;;;;;6.93;51.84;99207.50;4979469;28;101728;-62
2022/11/22 06:40:00;;;;;;;;;;;;;;;6.94;51.77;99208.28;4980052;27;126739;-65
2022/11/22 06:42:26;;;;;;;;;;;;;;;6.95;51.85;99221.41;4979577;27;123012;-65
2022/11/22 06:44:51;;;;;;;;;;;;;;;6.96;51.55;99231.06;4961996;28;128010;-66
2022/11/22 06:47:17;;;;;;;;;;;;;;;6.97;51.91;99219.25;4990760;27;109877;-62
2022/11/22 06:49:44;;;;;;;;;;;;;;;6.99;51.47;99230.50;4967463;28;126155;-65
2022/11/22 06:52:10;;;;;;;;;;;;;;;7.00;51.86;99220.59;4980595;28;97995;-62
2022/11/22 06:54:36;;;;;;;;;;;;;;;7.02;51.65;99215.75;4979246;27;127112;-64
2022/11/22 06:57:02;;;;;;;;;;;;;;;7.04;51.73;99218.97;4976935;28;126724;-65
2022/11/22 06:59:28;;;;;;;;;;;;;;;7.07;51.86;99221.09;4985534;27;104000;-62
2022/11/22 07:01:54;;;;;;;;;;;;;;;7.08;51.68;99226.19;4961887;28;122556;-65
2022/11/22 07:04:20;;;;;;;;;;;;;;;7.11;51.78;99222.97;4991452;27;98171;-65
2022/11/22 07:06:46;;;;;;;;;;;;;;;7.16;51.70;99216.78;4981077;27;128110;-63
2022/11/22 07:09:12;;;;;;;;;;;;;;;7.19;51.61;99229.66;4960405;28;128165;-65
2022/11/22 07:11:39;;;;;;;;;;;;;;;7.23;51.94;99240.59;4981384;28;97980;-65
2022/11/22 07:14:05;;;;;;;;;;;;;;;7.29;51.44;99242.19;4980203;27;124355;-62
2022/11/22 07:16:31;;;;;;;;;;;;;;;7.32;51.29;99247.00;4963879;28;127885;-63
2022/11/22 07:18:58;;;;;;;;;;;;;;;7.36;51.80;99248.88;4979706;27;126992;-63
2022/11/22 07:21:24;;;;;;;;;;;;;;;7.41;51.88;99247.22;4981079;27;98133;-65
2022/11/22 07:23:51;;;;;;;;;;;;;;;7.47;51.47;99238.09;4992503;27;123289;-62
2022/11/22 07:26:18;;;;;;;;;;;;;;;7.57;51.82;99236.16;4982061;28;108525;-65
2022/11/22 07:28:44;;;;;;;;;;;;;;;7.69;51.39;99230.44;4980971;27;97746;-65
2022/11/22 07:31:11;;;;;;;;;;;;;;;7.81;51.29;99222.03;4981741;28;116936;-65
2022/11/22 07:33:37;;;;;;;;;;;;;;;7.91;51.66;99215.81;4982611;27;98062;-63
2022/11/22 07:36:10;;;;;;;;;;;;;;;7.97;51.59;99209.31;4985113;28;102878;-65
2022/11/22 07:38:36;;;;;;;;;;;;;;;8.04;51.97;99221.34;4980169;27;124698;-65
2022/11/22 07:41:02;;;;;;;;;;;;;;;8.12;51.13;99222.63;4983146;27;98279;-66
2022/11/22 07:43:28;;;;;;;;;;;;;;;8.18;51.66;99226.09;4989032;27;126061;-65
2022/11/22 07:46:01;;;;;;;;;;;;;;;8.25;51.48;99215.81;4987986;27;98452;-65
2022/11/22 07:48:27;;;;;;;;;;;;;;;8.31;51.30;99209.31;4965523;28;115166;-66
2022/11/22 07:50:52;;;;;;;;;;;;;;;8.35;51.61;99213.03;4965832;27;100065;-63
2022/11/22 07:53:18;;;;;;;;;;;;;;;8.41;51.38;99213.81;4980975;28;126510;-65
2022/11/22 07:55:44;;;;;;;;;;;;;;;8.46;51.58;99222.63;4984785;27;124761;-63
2022/11/22 07:58:10;;;;;;;;;;;;;;;8.50;51.62;99231.72;4986762;27;99520;-65
2022/11/22 08:00:36;;;;;;;;;;;;;;;8.55;51.18;99233.56;4993844;28;111702;-63
2022/11/22 08:03:02;;;;;;;;;;;;;;;8.59;51.06;99234.59;4981852;28;128452;-63
2022/11/22 08:05:28;;;;;;;;;;;;;;;8.63;51.29;99243.69;4984594;28;119012;-63
2022/11/22 08:07:54;;;;;;;;;;;;;;;8.67;51.17;99239.34;4965219;28;127177;-62
2022/11/22 08:10:20;;;;;;;;;;;;;;;8.71;51.52;99240.38;4984680;27;99165;-63
2022/11/22 08:12:46;;;;;;;;;;;;;;;8.77;51.45;99243.84;4967896;28;126652;-63
2022/11/22 08:15:12;;;;;;;;;;;;;;;8.79;50.91;99244.34;4961332;28;102044;-64
2022/11/22 08:17:38;;;;;;;;;;;;;;;8.83;51.53;99240.78;4984172;27;114449;-63
2022/11/22 08:20:07;;;;;;;;;;;;;;;8.90;51.01;99245.03;4992546;27;123113;-63
2022/11/22 08:22:34;;;;;;;;;;;;;;;8.95;51.45;99242.28;4984274;27;98270;-65
2022/11/22 08:25:00;;;;;;;;;;;;;;;9.01;51.33;99231.19;4980179;27;125153;-63
2022/11/22 08:27:26;;;;;;;;;;;;;;;9.10;51.18;99231.38;4986897;27;98250;-63
2022/11/22 08:29:52;;;;;;;;;;;;;;;9.15;51.10;99235.88;4945940;28;119896;-65
2022/11/22 08:32:20;;;;;;;;;;;;;;;9.19;51.39;99242.28;4961221;28;127358;-63
2022/11/22 08:34:46;;;;;;;;;;;;;;;9.21;51.36;99246.28;4982004;27;125882;-65
2022/11/22 08:37:12;;;;;;;;;;;;;;;9.23;50.96;99246.78;4980177;27;126286;-65
2022/11/22 08:39:38;;;;;;;;;;;;;;;9.28;50.85;99256.72;4993871;27;122516;-63
2022/11/22 08:42:05;;;;;;;;;;;;;;;9.31;51.50;99254.25;4984946;27;127764;-65
2022/11/22 08:44:31;;;;;;;;;;;;;;;9.36;51.38;99255.28;4987051;27;98054;-65
2022/11/22 08:46:57;;;;;;;;;;;;;;;9.40;51.30;99250.91;4980203;28;129127;-63
2022/11/22 08:49:23;;;;;;;;;;;;;;;9.46;51.05;99263.19;4983514;27;122958;-63
2022/11/22 08:51:49;;;;;;;;;;;;;;;9.48;51.30;99263.72;4988216;27;127956;-63
2022/11/22 08:54:15;;;;;;;;;;;;;;;9.49;51.22;99266.09;4982457;27;127008;-66
2022/11/22 08:56:41;;;;;;;;;;;;;;;9.54;51.50;99259.84;4988249;28;97908;-63
2022/11/22 08:59:07;;;;;;;;;;;;;;;9.58;51.47;99258.19;4988107;27;121987;-63
2022/11/22 09:01:33;;;;;;;;;;;;;;;9.65;51.24;99247.06;4962304;28;128364;-62
2022/11/22 09:03:58;;;;;;;;;;;;;;;9.75;51.03;99245.06;4983831;28;104245;-65
2022/11/22 09:06:24;;;;;;;;;;;;;;;9.86;50.82;99245.69;4979941;28;127612;-63
2022/11/22 09:08:50;;;;;;;;;;;;;;;9.96;50.57;99252.81;4981285;27;98854;-65
2022/11/22 09:11:19;;;;;;;;;;;;;;;10.08;51.11;99251.28;4982466;28;98180;-65
2022/11/22 09:13:46;;;;;;;;;;;;;;;10.20;50.38;99250.03;4980799;27;125185;-66
2022/11/22 09:16:13;;;;;;;;;;;;;;;10.27;50.42;99251.28;4976088;28;98214;-63
2022/11/22 09:18:39;;;;;;;;;;;;;;;10.36;50.91;99251.41;4978460;28;98229;-65
2022/11/22 09:21:07;;;;;;;;;;;;;;;10.45;50.63;99256.91;4981184;28;128403;-65
2022/11/22 09:23:33;;;;;;;;;;;;;;;10.52;50.80;99257.34;4981392;28;98705;-65
2022/11/22 09:26:06;;;;;;;;;;;;;;;10.60;50.52;99253.16;4982142;28;118991;-66
2022/11/22 09:28:32;;;;;;;;;;;;;;;10.69;50.92;99245.97;4963359;28;98093;-63
2022/11/22 09:31:01;;;;;;;;;;;;;;;10.77;50.80;99245.31;4984542;27;99046;-66
2022/11/22 09:33:28;;;;;;;;;;;;;;;10.86;50.46;99248.13;4976824;28;114171;-66
2022/11/22 09:36:00;;;;;;;;;;;;;;;10.91;50.59;99251.50;4994470;27;113649;-62
2022/11/22 09:38:27;;;;;;;;;;;;;;;10.96;50.49;99242.53;4983208;27;98260;-65
2022/11/22 09:40:53;;;;;;;;;;;;;;;11.00;50.65;99255.13;4986099;27;108827;-65
2022/11/22 09:43:57;;;;;;;;;;;;;;;11.05;50.65;99257.72;4979937;28;98845;-63
2022/11/22 09:46:54;;;;;;;;;;;;;;;11.16;50.36;99263.72;4960241;28;98053;-65
2022/11/22 09:49:24;;;;;;;;;;;;;;;11.22;50.66;99265.19;4967413;27;99872;-63
2022/11/22 09:51:57;;;;;;;;;;;;;;;11.26;50.48;99263.50;4965093;28;104133;-63
2022/11/22 09:54:28;;;;;;;;;;;;;;;11.34;50.27;99262.00;4975783;27;100293;-65
2022/11/22 09:56:54;;;;;;;;;;;;;;;11.46;50.40;99264.97;4965670;28;127079;-66
2022/11/22 09:59:27;;;;;;;;;;;;;;;11.53;50.38;99276.19;4968073;28;98344;-65
2022/11/22 10:02:14;;;;;;;;;;;;;;;11.59;50.59;99284.16;4964893;28;98693;-66
2022/11/22 10:04:43;;;;;;;;;;;;;;;11.61;50.58;99284.66;4965545;28;97869;-64
2022/11/22 10:07:18;;;;;;;;;;;;;;;11.64;50.37;99284.88;4950039;28;110887;-66
2022/11/22 10:09:50;;;;;;;;;;;;;;;11.70;50.42;99280.94;4948222;28;97860;-66
2022/11/22 10:12:22;;;;;;;;;;;;;;;11.74;50.38;99281.94;4992318;27;98426;-63
2022/11/22 10:15:11;;;;;;;;;;;;;;;11.89;50.43;99275.44;4959642;28;101642;-63
2022/11/22 10:18:10;;;;;;;;;;;;;;;12.10;50.28;99275.75;4975777;28;125768;-64
2022/11/22 10:20:38;;;;;;;;;;;;;;;12.26;50.16;99265.38;4921901;28;98163;-66
2022/11/22 10:23:13;;;;;;;;;;;;;;;12.38;49.84;99262.94;4965906;27;128839;-63
2022/11/22 10:25:40;;;;;;;;;;;;;;;12.53;49.98;99254.44;4961735;28;128532;-64
2022/11/22 10:28:17;;;;;;;;;;;;;;;12.68;49.73;99263.28;4986876;27;127152;-63
2022/11/22 10:30:53;;;;;;;;;;;;;;;12.77;50.03;99259.53;4992842;27;97922;-63
2022/11/22 10:33:46;;;;;;;;;;;;;;;12.85;49.89;99266.09;4943128;27;125615;-63
2022/11/22 10:36:36;;;;;;;;;;;;;;;12.91;50.02;99262.13;4957900;27;98001;-63
2022/11/22 10:39:11;;;;;;;;;;;;;;;12.95;50.21;99273.13;4980753;27;124747;-63
2022/11/22 10:41:49;;;;;;;;;;;;;;;12.97;49.95;99268.22;4946130;28;98043;-63
2022/11/22 10:44:30;;;;;;;;;;;;;;;13.01;50.25;99274.59;4984385;27;98706;-63
2022/11/22 10:47:05;;;;;;;;;;;;;;;13.02;50.33;99271.56;4962031;28;126467;-66
2022/11/22 10:49:41;;;;;;;;;;;;;;;13.06;49.85;99274.44;4989948;27;126988;-66
2022/11/22 10:52:27;;;;;;;;;;;;;;;13.07;50.15;99269.81;4955166;28;119221;-63
2022/11/22 10:55:03;;;;;;;;;;;;;;;13.08;50.29;99271.41;4963952;28;98309;-66
2022/11/22 10:57:57;;;;;;;;;;;;;;;13.10;50.21;99270.00;4981153;28;99185;-64
2022/11/22 11:00:24;;;;;;;;;;;;;;;13.15;50.16;99263.66;4983052;27;98438;-66
2022/11/22 11:03:25;;;;;;;;;;;;;;;13.21;50.27;99268.63;4965070;28;117964;-66
2022/11/22 11:06:10;;;;;;;;;;;;;;;13.27;50.44;99263.88;4983163;27;98453;-63
2022/11/22 11:08:51;;;;;;;;;;;;;;;13.34;50.00;99258.81;4993393;28;98826;-66
2022/11/22 11:11:17;;;;;;;;;;;;;;;13.39;50.15;99245.13;4945836;28;128571;-64
2022/11/22 11:13:45;;;;;;;;;;;;;;;13.39;50.02;99247.81;4983249;27;122091;-63
2022/11/22 11:16:19;;;;;;;;;;;;;;;13.38;50.38;99251.66;4959358;28;125910;-66
2022/11/22 11:18:50;;;;;;;;;;;;;;;13.34;50.40;99249.88;4952371;27;98260;-64
2022/11/22 11:21:16;;;;;;;;;;;;;;;13.29;50.49;99244.63;4984316;27;124220;-66
2022/11/22 11:23:42;;;;;;;;;;;;;;;13.23;50.42;99244.75;4985309;27;122447;-66
2022/11/22 11:26:18;;;;;;;;;;;;;;;13.18;50.76;99249.50;4980777;28;98959;-66
2022/11/22 11:28:44;;;;;;;;;;;;;;;13.11;50.63;99247.25;4992982;27;98068;-66
2022/11/22 11:31:12;;;;;;;;;;;;;;;13.09;50.88;99245.97;4986334;27;117577;-66
2022/11/22 11:33:38;;;;;;;;;;;;;;;13.05;50.67;99244.97;4986261;27;97910;-66
2022/11/22 11:36:09;;;;;;;;;;;;;;;13.00;51.00;99246.72;4982322;28;98636;-64
2022/11/22 11:38:39;;;;;;;;;;;;;;;12.97;51.04;99252.78;4968842;27;127856;-66
2022/11/22 11:41:30;;;;;;;;;;;;;;;12.94;51.01;99249.88;4982488;28;98071;-66
2022/11/22 11:44:00;;;;;;;;;;;;;;;12.92;51.20;99247.47;4981502;28;98367;-63
2022/11/22 11:46:27;;;;;;;;;;;;;;;12.89;50.83;99250.81;4993598;27;124866;-64
2022/11/22 11:48:55;;;;;;;;;;;;;;;12.86;50.89;99239.84;4982844;28;98412;-66
2022/11/22 11:51:25;;;;;;;;;;;;;;;12.84;51.11;99247.44;4981858;28;98009;-63
2022/11/22 11:54:18;;;;;;;;;;;;;;;12.83;50.97;99245.84;4967258;28;98091;-63
2022/11/22 11:56:59;;;;;;;;;;;;;;;12.80;51.01;99247.25;4966282;28;98292;-64
2022/11/22 11:59:38;;;;;;;;;;;;;;;12.81;51.10;99245.34;4984635;28;104590;-64
2022/11/22 12:02:24;;;;;;;;;;;;;;;12.80;50.90;99249.97;4968093;28;98196;-64
2022/11/22 12:04:58;;;;;;;;;;;;;;;12.81;51.09;99239.94;4975123;27;115988;-63
2022/11/22 12:07:26;;;;;;;;;;;;;;;12.80;50.99;99238.34;4981105;27;99559;-65
2022/11/22 12:09:52;;;;;;;;;;;;;;;12.80;50.87;99228.34;4987523;27;98482;-64
2022/11/22 12:12:36;;;;;;;;;;;;;;;12.79;50.97;99240.28;4972887;27;100005;-63
2022/11/22 12:15:28;;;;;;;;;;;;;;;12.77;51.32;99239.78;4980715;27;97906;-63
2022/11/22 12:18:02;;;;;;;;;;;;;;;12.74;51.08;99243.91;4984287;28;98706;-66
2022/11/22 12:21:10;;;;;;;;;;;;;;;12.71;50.97;99236.41;4967541;28;98217;-63
2022/11/22 12:23:55;;;;;;;;;;;;;;;12.67;51.16;99245.47;4996487;27;97825;-63
2022/11/22 12:26:21;;;;;;;;;;;;;;;12.61;51.13;99233.19;4979245;27;98185;-65
2022/11/22 12:28:47;;;;;;;;;;;;;;;12.56;51.48;99227.91;4980913;28;125167;-63
2022/11/22 12:31:41;;;;;;;;;;;;;;;12.49;51.31;99228.34;4983822;28;99169;-63
2022/11/22 12:34:11;;;;;;;;;;;;;;;12.42;51.52;99217.19;4966208;28;126964;-64
2022/11/22 12:36:46;;;;;;;;;;;;;;;12.39;51.41;99215.09;4950932;27;119488;-65
2022/11/22 12:39:14;;;;;;;;;;;;;;;12.33;51.50;99219.81;4983259;27;98902;-66
2022/11/22 12:41:39;;;;;;;;;;;;;;;12.28;51.33;99225.38;4952131;27;124628;-63
2022/11/22 12:44:06;;;;;;;;;;;;;;;12.22;51.32;99216.59;4988900;28;126740;-63
2022/11/22 12:46:38;;;;;;;;;;;;;;;12.18;51.42;99223.72;4968956;28;121405;-66
2022/11/22 12:49:11;;;;;;;;;;;;;;;12.13;51.48;99221.13;4967443;28;98331;-66
2022/11/22 12:51:57;;;;;;;;;;;;;;;12.09;51.75;99216.66;4967466;28;98652;-66
2022/11/22 12:54:33;;;;;;;;;;;;;;;12.04;51.78;99228.38;4964749;28;114228;-63
2022/11/22 12:57:02;;;;;;;;;;;;;;;11.97;51.62;99231.50;4963498;27;121249;-65
2022/11/22 12:59:40;;;;;;;;;;;;;;;11.93;51.78;99241.31;4980988;27;98677;-66
2022/11/22 13:02:33;;;;;;;;;;;;;;;11.89;51.81;99239.53;4990990;28;126128;-63
2022/11/22 13:05:11;;;;;;;;;;;;;;;11.84;51.80;99229.66;4982294;27;98479;-63
2022/11/22 13:07:58;;;;;;;;;;;;;;;11.81;51.85;99232.94;4968888;27;98131;-65
2022/11/22 13:10:33;;;;;;;;;;;;;;;11.77;51.69;99230.03;4965974;28;102851;-63
2022/11/22 13:12:59;;;;;;;;;;;;;;;11.73;51.64;99231.75;4967837;28;98973;-63